Time;durP1;ratioP1;P1;durP2;ratioP2;P2;SDS_P1;SDS_P2;PMS_P1;PMS_P2;Temp;Humidity;BMP_temperature;BMP_pressure;BME280_temperature;BME280_humidity;BME280_pressure;Samples;Min_cycle;Max_cycle;Signal;HPM_P1;HPM_P2
2023/08/08 00:00:46;;;;;;;1.10;1.10;;;11.60;99.90;;;;;;4995098;28;20045;-37
2023/08/08 00:03:12;;;;;;;1.08;1.08;;;11.60;99.90;;;;;;4996801;28;20048;-40
2023/08/08 00:05:38;;;;;;;1.08;1.08;;;11.60;99.90;;;;;;4996982;28;20018;-40
2023/08/08 00:08:04;;;;;;;0.90;0.90;;;11.60;99.90;;;;;;4995935;28;20026;-40
2023/08/08 00:10:29;;;;;;;3.80;1.25;;;11.60;99.90;;;;;;4998612;28;20032;-40
2023/08/08 00:12:55;;;;;;;1.85;1.17;;;11.50;99.90;;;;;;5001100;28;20038;-40
2023/08/08 00:15:21;;;;;;;1.10;0.95;;;11.60;99.90;;;;;;5000455;28;20038;-39
2023/08/08 00:17:47;;;;;;;1.02;0.90;;;11.40;99.90;;;;;;4997009;28;20471;-39
2023/08/08 00:20:12;;;;;;;1.30;1.20;;;11.50;99.90;;;;;;4999861;28;20026;-40
2023/08/08 00:22:38;;;;;;;1.63;1.15;;;11.40;99.90;;;;;;4998626;28;20084;-40
2023/08/08 00:25:04;;;;;;;0.75;0.75;;;11.40;99.90;;;;;;4997896;28;20059;-38
2023/08/08 00:27:29;;;;;;;1.58;1.10;;;11.40;99.90;;;;;;4996454;28;20026;-40
2023/08/08 00:29:55;;;;;;;0.70;0.70;;;11.40;99.90;;;;;;5001798;28;20033;-39
2023/08/08 00:32:20;;;;;;;1.40;1.20;;;11.40;99.90;;;;;;4994708;28;20042;-35
2023/08/08 00:34:46;;;;;;;1.45;1.27;;;11.40;99.90;;;;;;4992166;28;20034;-39
2023/08/08 00:37:12;;;;;;;0.88;0.80;;;11.30;99.90;;;;;;4992310;28;20041;-40
2023/08/08 00:39:37;;;;;;;1.25;0.93;;;11.30;99.90;;;;;;4992172;28;20035;-39
2023/08/08 00:42:03;;;;;;;0.95;0.93;;;11.30;99.90;;;;;;4985567;28;20673;-39
2023/08/08 00:44:29;;;;;;;2.17;1.30;;;11.30;99.90;;;;;;5001252;28;20538;-41
2023/08/08 00:46:54;;;;;;;0.90;0.90;;;11.30;99.90;;;;;;4998934;28;20519;-41
2023/08/08 00:49:21;;;;;;;2.08;1.00;;;11.20;99.90;;;;;;4998698;28;20066;-40
2023/08/08 00:51:47;;;;;;;1.27;1.00;;;11.30;99.90;;;;;;4998924;28;20106;-40
2023/08/08 00:54:13;;;;;;;1.17;1.08;;;11.30;99.90;;;;;;5002037;28;20614;-41
2023/08/08 00:56:39;;;;;;;1.10;1.00;;;11.30;99.90;;;;;;5000793;28;20084;-40
2023/08/08 00:59:05;;;;;;;1.92;1.08;;;11.30;99.90;;;;;;4988652;28;20033;-39
2023/08/08 01:01:31;;;;;;;2.90;1.20;;;11.20;99.90;;;;;;4979551;28;20041;-37
2023/08/08 01:03:58;;;;;;;1.05;1.05;;;11.20;99.90;;;;;;4984612;28;20026;-40
2023/08/08 01:06:35;;;;;;;6.35;1.10;;;11.10;99.90;;;;;;4993391;28;20026;-35
2023/08/08 01:09:24;;;;;;;0.85;0.85;;;11.10;99.90;;;;;;4991703;28;20046;-34
2023/08/08 01:11:52;;;;;;;1.27;1.17;;;11.10;99.90;;;;;;4989105;28;20029;-35
2023/08/08 01:14:19;;;;;;;1.40;1.30;;;11.10;99.90;;;;;;5001226;28;20070;-35
2023/08/08 01:16:45;;;;;;;2.03;1.05;;;11.10;99.90;;;;;;5007021;28;20514;-32
2023/08/08 01:19:24;;;;;;;1.13;1.00;;;11.10;99.90;;;;;;5000414;28;20110;-33
2023/08/08 01:21:52;;;;;;;;;;;11.10;99.90;;;;;;5003978;28;20068;-32
2023/08/08 01:24:27;;;;;;;1.00;1.00;;;11.00;99.90;;;;;;5000074;28;20525;-34
2023/08/08 01:26:53;;;;;;;1.52;0.98;;;11.00;99.90;;;;;;5001918;28;20049;-33
2023/08/08 01:29:19;;;;;;;1.52;1.10;;;11.00;99.90;;;;;;4999817;28;20077;-35
2023/08/08 01:31:45;;;;;;;1.13;1.02;;;11.00;99.90;;;;;;4991920;28;20388;-33
2023/08/08 01:34:11;;;;;;;0.90;0.90;;;10.90;99.90;;;;;;4985132;28;20022;-33
2023/08/08 01:36:59;;;;;;;1.95;0.90;;;10.90;99.90;;;;;;5003797;28;20072;-32
2023/08/08 01:39:30;;;;;;;1.23;1.10;;;11.00;99.90;;;;;;4994636;28;20046;-33
2023/08/08 01:41:56;;;;;;;0.82;0.80;;;11.00;99.90;;;;;;4999985;28;20066;-35
2023/08/08 01:44:25;;;;;;;1.42;1.02;;;10.90;99.90;;;;;;4997594;28;20104;-33
2023/08/08 01:46:52;;;;;;;2.60;1.05;;;10.90;99.90;;;;;;4998820;28;20038;-32
2023/08/08 01:49:18;;;;;;;0.93;0.93;;;10.80;99.90;;;;;;5001949;28;20040;-32
2023/08/08 01:51:43;;;;;;;2.33;1.00;;;10.80;99.90;;;;;;4998590;28;20386;-35
2023/08/08 01:54:09;;;;;;;0.90;0.90;;;10.90;99.90;;;;;;5004751;28;20041;-33
2023/08/08 01:56:35;;;;;;;1.80;1.13;;;10.90;99.90;;;;;;5002780;28;20030;-32
2023/08/08 01:59:01;;;;;;;0.82;0.82;;;10.90;99.90;;;;;;5001644;28;20034;-33
2023/08/08 02:01:26;;;;;;;1.20;1.10;;;10.90;99.90;;;;;;4999303;28;20034;-34
2023/08/08 02:03:52;;;;;;;0.80;0.80;;;11.00;99.90;;;;;;4997947;28;20030;-37
2023/08/08 02:06:18;;;;;;;1.20;1.10;;;11.00;99.90;;;;;;5001765;28;20018;-32
2023/08/08 02:08:44;;;;;;;2.20;1.10;;;11.00;99.90;;;;;;4999768;28;20100;-32
2023/08/08 02:11:10;;;;;;;1.02;1.02;;;11.00;99.90;;;;;;5001885;28;20159;-33
2023/08/08 02:13:35;;;;;;;1.20;1.10;;;11.00;99.90;;;;;;5003442;28;20541;-34
2023/08/08 02:16:01;;;;;;;1.05;0.98;;;11.00;99.90;;;;;;5000921;28;20092;-32
2023/08/08 02:18:26;;;;;;;1.10;1.00;;;11.00;99.90;;;;;;5001740;28;20464;-33
2023/08/08 02:20:52;;;;;;;0.90;0.90;;;11.10;99.90;;;;;;4999843;28;20391;-30
2023/08/08 02:23:18;;;;;;;0.98;0.98;;;11.10;99.90;;;;;;4999817;28;20030;-32
2023/08/08 02:25:44;;;;;;;1.20;0.90;;;11.10;99.90;;;;;;4970549;28;20026;-31
2023/08/08 02:28:09;;;;;;;1.05;0.98;;;11.10;99.90;;;;;;5002212;28;20045;-31
2023/08/08 02:30:35;;;;;;;1.20;1.10;;;11.20;99.90;;;;;;4999103;28;20042;-34
2023/08/08 02:33:01;;;;;;;1.00;0.98;;;11.20;99.90;;;;;;4986953;28;20034;-33
2023/08/08 02:35:27;;;;;;;1.10;0.90;;;11.20;99.90;;;;;;4999945;28;20034;-31
2023/08/08 02:37:52;;;;;;;0.90;0.90;;;11.20;99.90;;;;;;4985652;28;20034;-31
2023/08/08 02:40:18;;;;;;;2.03;0.93;;;11.20;99.90;;;;;;4995416;28;20026;-30
2023/08/08 02:42:43;;;;;;;1.10;1.00;;;11.20;99.90;;;;;;4997361;28;20083;-33
2023/08/08 02:45:09;;;;;;;1.00;1.00;;;11.10;99.90;;;;;;5003909;28;20467;-31
2023/08/08 02:47:35;;;;;;;2.15;1.05;;;11.10;99.90;;;;;;5006403;28;20054;-31
2023/08/08 02:50:00;;;;;;;1.13;1.10;;;11.10;99.90;;;;;;5000476;28;20112;-31
2023/08/08 02:52:26;;;;;;;2.10;1.23;;;11.10;99.90;;;;;;4998547;28;20862;-33
2023/08/08 02:54:51;;;;;;;1.45;1.00;;;11.10;99.90;;;;;;5002439;28;20514;-31
2023/08/08 02:57:17;;;;;;;1.30;1.00;;;11.20;99.90;;;;;;4999923;28;20505;-31
2023/08/08 02:59:43;;;;;;;1.35;1.15;;;11.20;99.90;;;;;;5006796;28;20045;-33
2023/08/08 03:02:08;;;;;;;1.30;1.20;;;11.20;99.90;;;;;;5002471;28;20149;-32
2023/08/08 03:04:34;;;;;;;1.45;0.93;;;11.30;99.90;;;;;;4996418;28;20108;-37
2023/08/08 03:07:02;;;;;;;1.17;0.90;;;11.20;99.90;;;;;;4996105;28;20029;-32
2023/08/08 03:09:28;;;;;;;1.52;1.02;;;11.30;99.90;;;;;;5002404;28;20705;-31
2023/08/08 03:11:53;;;;;;;1.85;1.20;;;11.30;99.90;;;;;;4998552;28;20038;-33
2023/08/08 03:14:19;;;;;;;1.13;1.00;;;11.30;99.90;;;;;;5000077;28;20041;-34
2023/08/08 03:16:45;;;;;;;3.30;1.15;;;11.30;99.90;;;;;;4998688;28;20687;-31
2023/08/08 03:19:10;;;;;;;1.75;1.13;;;11.30;99.90;;;;;;4997493;28;20130;-31
2023/08/08 03:21:36;;;;;;;0.88;0.88;;;11.30;99.90;;;;;;5002520;28;20030;-35
2023/08/08 03:24:01;;;;;;;1.42;1.00;;;11.30;99.90;;;;;;4994872;28;20041;-33
2023/08/08 03:26:27;;;;;;;1.00;1.00;;;11.30;99.90;;;;;;4986440;28;21109;-32
2023/08/08 03:28:53;;;;;;;1.00;0.90;;;11.30;99.90;;;;;;4996774;28;20478;-34
2023/08/08 03:31:20;;;;;;;1.13;0.98;;;11.40;99.90;;;;;;4999152;28;20070;-34
2023/08/08 03:33:45;;;;;;;1.05;0.98;;;11.40;99.90;;;;;;4999145;28;20030;-37
2023/08/08 03:36:11;;;;;;;1.08;1.08;;;11.40;99.90;;;;;;4997644;28;20084;-35
2023/08/08 03:38:37;;;;;;;1.00;1.00;;;11.40;99.90;;;;;;4995205;28;20514;-32
2023/08/08 03:41:04;;;;;;;1.27;0.80;;;11.40;99.90;;;;;;5000304;28;20069;-36
2023/08/08 03:43:29;;;;;;;2.10;1.20;;;11.40;99.90;;;;;;4993218;28;20030;-33
2023/08/08 03:45:55;;;;;;;2.50;1.00;;;11.40;99.90;;;;;;4994930;28;20030;-35
2023/08/08 03:48:21;;;;;;;1.17;1.08;;;11.50;99.90;;;;;;4994462;28;20034;-32
2023/08/08 03:50:46;;;;;;;1.17;1.15;;;11.40;99.90;;;;;;4991504;28;20032;-33
2023/08/08 03:53:12;;;;;;;1.45;1.35;;;11.40;99.90;;;;;;4998622;28;20044;-32
2023/08/08 03:55:38;;;;;;;0.80;0.80;;;11.40;99.90;;;;;;4996167;28;20046;-34
2023/08/08 03:58:05;;;;;;;1.10;0.98;;;11.40;99.90;;;;;;5001142;28;20034;-34
2023/08/08 04:00:31;;;;;;;1.40;1.30;;;11.40;99.90;;;;;;4999562;28;20558;-36
2023/08/08 04:02:57;;;;;;;1.85;1.73;;;11.40;99.90;;;;;;4997602;28;20041;-33
2023/08/08 04:05:22;;;;;;;2.05;1.08;;;11.50;99.90;;;;;;4997864;28;20031;-33
2023/08/08 04:07:48;;;;;;;1.00;1.00;;;11.50;99.90;;;;;;4996107;28;20030;-38
2023/08/08 04:10:13;;;;;;;2.20;1.55;;;11.50;99.90;;;;;;4997471;28;20030;-31
2023/08/08 04:12:39;;;;;;;1.70;1.20;;;11.50;99.90;;;;;;4979310;28;20481;-31
2023/08/08 04:15:05;;;;;;;1.17;0.80;;;11.50;99.90;;;;;;5000529;28;20034;-35
2023/08/08 04:17:30;;;;;;;1.38;0.88;;;11.50;99.90;;;;;;4997188;28;20121;-34
2023/08/08 04:19:56;;;;;;;1.25;1.15;;;11.60;99.90;;;;;;4995551;28;20037;-37
2023/08/08 04:22:22;;;;;;;1.27;1.17;;;11.50;99.90;;;;;;4991964;28;20029;-40
2023/08/08 04:24:47;;;;;;;0.95;0.95;;;11.50;99.90;;;;;;4994560;28;20038;-40
2023/08/08 04:27:13;;;;;;;1.95;1.20;;;11.60;99.90;;;;;;4999063;28;20464;-40
2023/08/08 04:29:39;;;;;;;1.35;1.15;;;11.60;99.90;;;;;;4991138;28;20045;-40
2023/08/08 04:32:05;;;;;;;1.75;1.02;;;11.60;99.90;;;;;;4981763;28;20053;-38
2023/08/08 04:34:30;;;;;;;1.20;1.10;;;11.60;99.90;;;;;;4984193;28;20034;-37
2023/08/08 04:36:56;;;;;;;1.30;1.20;;;11.60;99.90;;;;;;4978355;28;20034;-36
2023/08/08 04:39:25;;;;;;;2.05;0.90;;;11.50;99.90;;;;;;4985410;28;20729;-40
2023/08/08 04:41:50;;;;;;;1.20;1.10;;;11.50;99.90;;;;;;4984566;28;20137;-40
2023/08/08 04:44:16;;;;;;;1.27;1.17;;;11.50;99.90;;;;;;4986726;28;20038;-38
2023/08/08 04:46:41;;;;;;;1.60;1.50;;;11.50;99.90;;;;;;4986887;28;20938;-39
2023/08/08 04:49:07;;;;;;;3.13;1.15;;;11.60;99.90;;;;;;4990337;28;20033;-40
2023/08/08 04:51:33;;;;;;;2.63;1.17;;;11.60;99.90;;;;;;4991007;28;20034;-38
2023/08/08 04:53:59;;;;;;;2.40;1.10;;;11.60;99.90;;;;;;4989087;28;20188;-40
2023/08/08 04:56:25;;;;;;;1.23;1.13;;;11.60;99.90;;;;;;4990774;28;20898;-38
2023/08/08 04:58:50;;;;;;;1.20;1.10;;;11.60;99.90;;;;;;4994579;28;20041;-41
2023/08/08 05:01:17;;;;;;;1.38;1.20;;;11.60;99.90;;;;;;4999606;28;20061;-39
2023/08/08 05:03:43;;;;;;;1.17;1.08;;;11.60;99.90;;;;;;5003916;28;20221;-40
2023/08/08 05:06:08;;;;;;;1.55;1.10;;;11.60;99.90;;;;;;5004564;28;20026;-38
2023/08/08 05:08:34;;;;;;;0.90;0.90;;;11.70;99.90;;;;;;5002774;28;20438;-40
2023/08/08 05:11:00;;;;;;;1.50;1.30;;;11.90;99.90;;;;;;4998330;28;20026;-40
2023/08/08 05:13:25;;;;;;;2.08;1.33;;;12.00;99.90;;;;;;5003844;28;20037;-39
2023/08/08 05:15:51;;;;;;;1.58;1.20;;;12.10;99.90;;;;;;5003686;28;20037;-39
2023/08/08 05:18:17;;;;;;;1.48;1.10;;;12.20;99.90;;;;;;4991657;28;20060;-40
2023/08/08 05:20:43;;;;;;;2.50;1.13;;;12.20;99.90;;;;;;5005352;28;20026;-38
2023/08/08 05:23:08;;;;;;;1.83;1.20;;;12.20;99.90;;;;;;5001995;28;20226;-38
2023/08/08 05:25:34;;;;;;;2.60;1.00;;;12.30;99.90;;;;;;5002235;28;20038;-40
2023/08/08 05:27:59;;;;;;;1.10;1.00;;;12.40;99.90;;;;;;5005903;28;20041;-38
2023/08/08 05:30:25;;;;;;;1.63;1.33;;;12.50;99.90;;;;;;5000532;28;20040;-33
2023/08/08 05:32:52;;;;;;;1.17;1.10;;;12.60;99.90;;;;;;5003093;28;20052;-30
2023/08/08 05:35:17;;;;;;;1.88;1.27;;;12.70;99.90;;;;;;5004171;28;20030;-31
2023/08/08 05:37:43;;;;;;;1.20;1.10;;;12.80;99.90;;;;;;4995446;28;20097;-31
2023/08/08 05:40:10;;;;;;;1.40;1.00;;;12.90;99.90;;;;;;5004132;28;20414;-34
2023/08/08 05:42:36;;;;;;;1.23;1.10;;;12.90;99.90;;;;;;4999855;28;20533;-32
2023/08/08 05:45:02;;;;;;;1.67;1.10;;;13.10;99.90;;;;;;5002157;28;20044;-34
2023/08/08 05:47:28;;;;;;;1.20;1.10;;;13.20;99.90;;;;;;4998420;28;20026;-33
2023/08/08 05:49:53;;;;;;;0.93;0.90;;;13.30;99.90;;;;;;4986575;28;20576;-38
2023/08/08 05:52:19;;;;;;;1.20;1.10;;;13.30;99.90;;;;;;4986358;28;21713;-37
2023/08/08 05:54:45;;;;;;;1.15;1.05;;;13.30;99.90;;;;;;4971442;28;20034;-40
2023/08/08 05:57:21;;;;;;;1.02;1.00;;;13.40;99.90;;;;;;4989025;28;20040;-37
2023/08/08 05:59:47;;;;;;;1.15;1.05;;;13.60;99.90;;;;;;4990103;28;20042;-39
2023/08/08 06:02:12;;;;;;;1.55;1.30;;;13.50;99.90;;;;;;4984463;28;20990;-40
2023/08/08 06:04:38;;;;;;;1.52;1.13;;;13.60;99.90;;;;;;4965944;28;20357;-37
2023/08/08 06:07:04;;;;;;;1.20;1.13;;;13.60;99.90;;;;;;4985252;28;20038;-37
2023/08/08 06:09:31;;;;;;;1.85;1.75;;;13.60;99.90;;;;;;4992032;28;20491;-40
2023/08/08 06:11:56;;;;;;;1.25;0.98;;;13.70;99.90;;;;;;4999162;28;20030;-41
2023/08/08 06:14:22;;;;;;;0.90;0.90;;;13.80;99.90;;;;;;5001356;28;20030;-40
2023/08/08 06:16:48;;;;;;;1.30;0.93;;;13.80;99.90;;;;;;4995655;28;20026;-40
2023/08/08 06:19:15;;;;;;;1.63;0.95;;;13.80;99.90;;;;;;4985119;28;20038;-40
2023/08/08 06:21:41;;;;;;;1.70;1.00;;;13.80;99.90;;;;;;4999977;28;20384;-38
2023/08/08 06:24:07;;;;;;;1.58;1.30;;;13.80;99.90;;;;;;5003062;28;20589;-40
2023/08/08 06:26:32;;;;;;;1.60;0.90;;;13.90;99.90;;;;;;4999275;28;20049;-38
2023/08/08 06:28:58;;;;;;;0.88;0.88;;;13.90;99.90;;;;;;4995601;28;20058;-37
2023/08/08 06:31:23;;;;;;;1.30;1.08;;;14.00;99.90;;;;;;4992143;28;20030;-39
2023/08/08 06:33:49;;;;;;;2.17;1.27;;;14.10;99.90;;;;;;4997238;28;20606;-40
2023/08/08 06:36:15;;;;;;;1.50;0.90;;;14.20;99.90;;;;;;4999102;28;20049;-40
2023/08/08 06:38:40;;;;;;;1.00;1.00;;;14.20;99.90;;;;;;5002308;28;20073;-39
2023/08/08 06:41:06;;;;;;;3.33;2.00;;;14.30;99.90;;;;;;4998807;28;20695;-33
2023/08/08 06:43:32;;;;;;;1.05;1.05;;;14.30;99.90;;;;;;4982859;28;20030;-34
2023/08/08 06:45:58;;;;;;;1.25;1.15;;;14.40;99.90;;;;;;5002875;28;20038;-32
2023/08/08 06:48:23;;;;;;;1.50;1.10;;;14.50;99.90;;;;;;4994484;28;20030;-33
2023/08/08 06:50:49;;;;;;;1.15;0.90;;;14.70;99.90;;;;;;4999616;28;20092;-32
2023/08/08 06:53:15;;;;;;;1.63;1.30;;;14.80;99.90;;;;;;5005336;28;20037;-35
2023/08/08 06:55:41;;;;;;;1.10;1.00;;;14.90;99.90;;;;;;4999097;28;20037;-34
2023/08/08 06:58:06;;;;;;;5.47;1.20;;;15.10;99.90;;;;;;4985316;28;20038;-32
2023/08/08 07:00:32;;;;;;;5.10;1.30;;;15.30;99.90;;;;;;5000212;28;20034;-34
2023/08/08 07:02:57;;;;;;;1.92;1.13;;;15.60;99.90;;;;;;5003002;28;20656;-35
2023/08/08 07:05:23;;;;;;;0.90;0.90;;;15.70;99.90;;;;;;5002717;28;20050;-32
2023/08/08 07:07:50;;;;;;;1.17;1.00;;;15.80;99.90;;;;;;5000335;28;20032;-33
2023/08/08 07:10:16;;;;;;;0.98;0.93;;;15.90;99.90;;;;;;5004715;28;20121;-33
2023/08/08 07:12:41;;;;;;;1.40;1.23;;;16.00;99.90;;;;;;5000731;28;20105;-36
2023/08/08 07:15:08;;;;;;;1.13;1.08;;;16.10;99.90;;;;;;5006006;28;20128;-33
2023/08/08 07:17:34;;;;;;;1.48;1.38;;;16.20;99.90;;;;;;5002212;28;20048;-33
2023/08/08 07:20:00;;;;;;;1.17;1.08;;;16.40;99.90;;;;;;5000652;28;20025;-35
2023/08/08 07:22:25;;;;;;;1.00;0.82;;;16.60;99.90;;;;;;4998866;28;20033;-32
2023/08/08 07:24:51;;;;;;;1.10;1.00;;;16.60;99.90;;;;;;4999602;28;20144;-33
2023/08/08 07:27:17;;;;;;;0.93;0.93;;;16.50;99.90;;;;;;5004188;28;20569;-32
2023/08/08 07:29:42;;;;;;;1.35;1.00;;;16.60;99.90;;;;;;4999413;28;20120;-36
2023/08/08 07:32:08;;;;;;;1.20;1.10;;;16.80;99.90;;;;;;4996631;28;20030;-34
2023/08/08 07:34:34;;;;;;;1.73;1.00;;;16.80;99.90;;;;;;5002134;28;20395;-33
2023/08/08 07:36:59;;;;;;;1.40;1.10;;;16.90;99.90;;;;;;5001009;28;20030;-33
2023/08/08 07:39:25;;;;;;;2.33;0.98;;;17.00;99.90;;;;;;4996342;28;20024;-32
2023/08/08 07:41:51;;;;;;;1.08;1.00;;;17.10;99.90;;;;;;4996746;28;20586;-32
2023/08/08 07:44:17;;;;;;;1.10;1.00;;;17.30;99.90;;;;;;5001150;28;20069;-33
2023/08/08 07:46:43;;;;;;;0.80;0.80;;;17.40;99.90;;;;;;4997330;28;20048;-32
2023/08/08 07:49:09;;;;;;;1.20;0.90;;;17.40;99.90;;;;;;5001063;28;20062;-39
2023/08/08 07:51:35;;;;;;;1.77;0.98;;;17.40;99.90;;;;;;5001851;28;20121;-37
2023/08/08 07:54:01;;;;;;;2.50;1.20;;;17.50;99.90;;;;;;5002206;28;20105;-41
2023/08/08 07:56:27;;;;;;;0.93;0.90;;;17.70;99.90;;;;;;4998771;28;20058;-39
2023/08/08 07:58:53;;;;;;;1.27;1.02;;;17.60;99.90;;;;;;5013529;28;20526;-40
2023/08/08 08:01:19;;;;;;;1.45;0.90;;;17.60;99.90;;;;;;4999254;28;20030;-37
2023/08/08 08:03:44;;;;;;;1.17;1.08;;;17.80;99.90;;;;;;4997109;28;20043;-37
2023/08/08 08:06:10;;;;;;;2.38;1.20;;;18.00;99.90;;;;;;5018413;28;20041;-41
2023/08/08 08:08:36;;;;;;;1.10;0.98;;;18.00;99.90;;;;;;4998195;28;20108;-40
2023/08/08 08:11:02;;;;;;;1.83;1.20;;;18.00;99.90;;;;;;5003317;28;20116;-31
2023/08/08 08:13:28;;;;;;;2.05;1.23;;;18.00;99.90;;;;;;5004356;28;20056;-31
2023/08/08 08:15:54;;;;;;;1.52;0.90;;;18.10;99.90;;;;;;5002301;28;20034;-31
2023/08/08 08:18:20;;;;;;;2.17;1.02;;;18.20;99.90;;;;;;4998518;28;20491;-31
2023/08/08 08:20:46;;;;;;;1.23;1.17;;;18.30;99.90;;;;;;5000218;28;20652;-31
2023/08/08 08:23:12;;;;;;;2.63;1.15;;;18.40;99.90;;;;;;5000357;28;20034;-34
2023/08/08 08:25:37;;;;;;;1.88;1.23;;;18.50;99.90;;;;;;4999341;28;20037;-31
2023/08/08 08:28:03;;;;;;;1.15;1.05;;;18.50;99.90;;;;;;5000695;28;20051;-33
2023/08/08 08:30:29;;;;;;;2.03;1.20;;;18.40;99.90;;;;;;4998840;28;20117;-33
2023/08/08 08:32:56;;;;;;;1.40;1.30;;;18.50;99.90;;;;;;4999619;28;20041;-31
2023/08/08 08:35:22;;;;;;;1.50;1.20;;;18.60;99.90;;;;;;5000785;28;20034;-31
2023/08/08 08:37:48;;;;;;;1.50;1.40;;;18.80;99.90;;;;;;4993536;28;20044;-31
2023/08/08 08:40:14;;;;;;;1.65;1.33;;;18.80;99.90;;;;;;4998286;28;20037;-33
2023/08/08 08:42:43;;;;;;;1.73;1.25;;;18.90;99.90;;;;;;4999918;28;20057;-33
2023/08/08 08:45:09;;;;;;;1.55;1.20;;;19.10;99.90;;;;;;4998569;28;20026;-31
2023/08/08 08:47:37;;;;;;;1.63;1.30;;;19.20;99.90;;;;;;4985028;28;20040;-31
2023/08/08 08:50:03;;;;;;;2.03;1.20;;;19.00;99.90;;;;;;4996183;28;20034;-31
2023/08/08 08:52:30;;;;;;;1.08;1.00;;;19.10;99.90;;;;;;5001114;28;20380;-32
2023/08/08 08:54:55;;;;;;;1.45;1.35;;;19.10;99.90;;;;;;5006381;28;20033;-33
2023/08/08 08:57:24;;;;;;;2.28;1.33;;;19.10;99.90;;;;;;5006555;28;20039;-32
2023/08/08 08:59:51;;;;;;;2.35;1.35;;;19.10;99.90;;;;;;4999320;28;20026;-33
2023/08/08 09:02:18;;;;;;;1.58;1.33;;;19.00;99.90;;;;;;4994951;28;20490;-34
2023/08/08 09:04:45;;;;;;;1.83;1.30;;;18.80;99.90;;;;;;5001212;28;20555;-34
2023/08/08 09:07:12;;;;;;;1.50;1.25;;;19.00;99.90;;;;;;4994023;28;20144;-34
2023/08/08 09:09:38;;;;;;;1.25;1.15;;;19.20;99.90;;;;;;5002045;28;20030;-32
2023/08/08 09:12:05;;;;;;;1.50;1.35;;;19.40;99.90;;;;;;4998278;28;20495;-31
2023/08/08 09:14:31;;;;;;;1.40;1.30;;;19.60;99.90;;;;;;4998185;28;20030;-32
2023/08/08 09:16:57;;;;;;;2.75;1.10;;;19.60;99.90;;;;;;4999077;28;20045;-34
2023/08/08 09:19:24;;;;;;;2.45;1.30;;;19.60;99.90;;;;;;4997353;28;20026;-30
2023/08/08 09:21:50;;;;;;;2.65;1.40;;;19.60;99.90;;;;;;5000867;28;20471;-31
2023/08/08 09:24:16;;;;;;;2.08;1.50;;;19.40;99.90;;;;;;4993792;28;20108;-32
2023/08/08 09:26:44;;;;;;;1.52;1.42;;;19.70;99.90;;;;;;4996989;28;20065;-32
2023/08/08 09:29:12;;;;;;;2.72;1.50;;;20.00;99.90;;;;;;5006324;28;20041;-31
2023/08/08 09:31:39;;;;;;;1.45;1.35;;;20.10;99.90;;;;;;4998916;28;20026;-30
2023/08/08 09:34:05;;;;;;;2.00;1.33;;;20.00;99.90;;;;;;5004695;28;20415;-32
2023/08/08 09:36:33;;;;;;;1.55;1.23;;;19.50;99.90;;;;;;5005899;28;20104;-30
2023/08/08 09:38:59;;;;;;;1.30;1.20;;;19.40;99.90;;;;;;4987052;28;20108;-32
2023/08/08 09:41:25;;;;;;;1.95;1.30;;;19.30;99.90;;;;;;5002074;28;20085;-30
2023/08/08 09:43:52;;;;;;;1.02;0.98;;;19.20;99.90;;;;;;5018349;28;20026;-30
2023/08/08 09:46:22;;;;;;;1.30;1.20;;;18.90;99.90;;;;;;5003465;28;20026;-30
2023/08/08 09:48:49;;;;;;;1.33;1.15;;;18.80;99.90;;;;;;5002999;28;20045;-31
2023/08/08 09:51:14;;;;;;;3.20;1.25;;;18.60;99.90;;;;;;5003825;28;20034;-34
2023/08/08 09:53:41;;;;;;;1.88;1.30;;;18.80;99.90;;;;;;5006587;28;20407;-30
2023/08/08 09:56:07;;;;;;;1.50;1.40;;;19.10;99.90;;;;;;5001902;28;20034;-31
2023/08/08 09:58:33;;;;;;;1.55;1.40;;;19.20;99.90;;;;;;5006441;28;20036;-34
2023/08/08 10:00:59;;;;;;;2.65;1.30;;;19.60;99.90;;;;;;4998338;28;20112;-30
2023/08/08 10:03:28;;;;;;;2.08;1.45;;;19.80;99.90;;;;;;5002791;28;20057;-31
2023/08/08 10:05:54;;;;;;;1.55;1.20;;;20.00;99.90;;;;;;4999292;28;20057;-30
2023/08/08 10:08:20;;;;;;;3.20;1.48;;;20.30;99.90;;;;;;5002941;28;20544;-29
2023/08/08 10:10:48;;;;;;;1.70;1.58;;;20.40;99.90;;;;;;4998994;28;20479;-39
2023/08/08 10:13:25;;;;;;;1.88;1.50;;;20.40;99.90;;;;;;5003706;28;20093;-40
2023/08/08 10:15:52;;;;;;;2.63;1.50;;;20.20;99.90;;;;;;4993634;28;20030;-40
2023/08/08 10:18:18;;;;;;;2.38;1.35;;;20.40;99.90;;;;;;4999059;28;20394;-40
2023/08/08 10:20:47;;;;;;;1.50;1.23;;;20.60;99.90;;;;;;5000567;28;20352;-40
2023/08/08 10:23:18;;;;;;;1.45;1.05;;;20.60;99.90;;;;;;5002404;28;20034;-40
2023/08/08 10:25:50;;;;;;;1.80;1.27;;;20.10;99.90;;;;;;4987581;28;20733;-40
2023/08/08 10:28:18;;;;;;;3.35;1.40;;;19.90;99.90;;;;;;5003499;28;20042;-39
2023/08/08 10:30:46;;;;;;;2.40;1.80;;;20.10;99.90;;;;;;5001569;28;20113;-40
2023/08/08 10:33:41;;;;;;;1.95;1.17;;;20.10;99.90;;;;;;4999703;28;20042;-41
2023/08/08 10:36:07;;;;;;;2.13;1.40;;;20.00;99.90;;;;;;4999966;28;20058;-37
2023/08/08 10:38:46;;;;;;;1.20;1.10;;;20.00;99.90;;;;;;5010298;28;20632;-40
2023/08/08 10:41:17;;;;;;;1.40;1.30;;;19.90;99.90;;;;;;5000265;28;20026;-42
2023/08/08 10:43:53;;;;;;;2.22;1.48;;;19.90;99.90;;;;;;5000647;28;20097;-39
2023/08/08 10:46:31;;;;;;;2.90;1.45;;;20.00;99.90;;;;;;5002722;28;20065;-38
2023/08/08 10:48:59;;;;;;;1.50;1.40;;;20.10;99.90;;;;;;5000409;28;20061;-39
2023/08/08 10:52:01;;;;;;;2.38;1.27;;;20.30;99.90;;;;;;4999994;28;20034;-42
2023/08/08 10:54:28;;;;;;;3.28;1.40;;;20.50;99.90;;;;;;4999418;28;20077;-40
2023/08/08 10:56:56;;;;;;;1.00;0.90;;;20.70;99.90;;;;;;5003040;28;20108;-40
2023/08/08 10:59:23;;;;;;;1.98;1.52;;;20.80;99.90;;;;;;4998200;28;20121;-38
2023/08/08 11:01:52;;;;;;;1.80;1.38;;;20.90;99.90;;;;;;4998049;28;20029;-40
2023/08/08 11:04:20;;;;;;;1.90;1.30;;;21.00;99.90;;;;;;4999863;28;20113;-40
2023/08/08 11:06:46;;;;;;;1.85;1.40;;;21.20;99.90;;;;;;4999088;28;20018;-42
2023/08/08 11:09:13;;;;;;;1.77;1.08;;;21.30;99.90;;;;;;5001587;28;20667;-39
2023/08/08 11:11:40;;;;;;;1.80;1.20;;;20.80;99.90;;;;;;4999573;28;20048;-37
2023/08/08 11:14:20;;;;;;;1.70;1.42;;;20.80;99.90;;;;;;4999781;28;20462;-40
2023/08/08 11:16:48;;;;;;;1.67;1.25;;;20.70;99.90;;;;;;4996770;28;20061;-38
2023/08/08 11:19:14;;;;;;;2.45;1.17;;;20.70;99.90;;;;;;4999100;28;20065;-41
2023/08/08 11:21:42;;;;;;;2.28;1.30;;;21.00;99.90;;;;;;4998960;28;20455;-41
2023/08/08 11:24:09;;;;;;;1.30;1.20;;;21.10;99.90;;;;;;4998905;28;20030;-40
2023/08/08 11:26:36;;;;;;;2.40;1.30;;;21.10;99.90;;;;;;5001710;28;20465;-41
2023/08/08 11:29:03;;;;;;;1.45;1.35;;;21.60;99.90;;;;;;5002745;28;20056;-37
2023/08/08 11:31:29;;;;;;;3.15;1.40;;;21.50;99.90;;;;;;5000695;28;21750;-40
2023/08/08 11:33:56;;;;;;;4.57;1.48;;;21.50;99.90;;;;;;4982150;28;20052;-43
2023/08/08 11:36:23;;;;;;;3.25;1.30;;;21.60;99.90;;;;;;4995916;28;21050;-39
2023/08/08 11:38:50;;;;;;;2.00;1.10;;;21.90;99.90;;;;;;5000362;28;20069;-38
2023/08/08 11:41:19;;;;;;;2.03;1.20;;;21.80;99.90;;;;;;5002253;28;20034;-38
2023/08/08 11:43:46;;;;;;;1.42;1.33;;;21.50;99.90;;;;;;4997993;28;20611;-42
2023/08/08 11:46:15;;;;;;;1.38;1.25;;;21.80;99.90;;;;;;5002807;28;20056;-40
2023/08/08 11:48:41;;;;;;;5.03;1.30;;;21.80;99.90;;;;;;4999892;28;20037;-41
2023/08/08 11:51:08;;;;;;;1.52;1.33;;;21.70;99.90;;;;;;5001149;28;20570;-38
2023/08/08 11:53:35;;;;;;;1.65;1.55;;;21.40;99.90;;;;;;5002618;28;20029;-42
2023/08/08 11:56:03;;;;;;;1.35;1.25;;;21.50;99.90;;;;;;4998216;28;20048;-40
2023/08/08 11:58:29;;;;;;;1.13;1.05;;;21.70;99.90;;;;;;4993601;28;20488;-41
2023/08/08 12:00:56;;;;;;;1.25;1.15;;;21.30;99.90;;;;;;4979273;28;20034;-41
2023/08/08 12:03:22;;;;;;;2.10;1.20;;;21.10;99.90;;;;;;4996603;28;20036;-42
2023/08/08 12:05:48;;;;;;;1.52;1.08;;;21.10;99.90;;;;;;4998740;28;20404;-42
2023/08/08 12:08:23;;;;;;;1.88;1.10;;;21.20;99.90;;;;;;4982486;28;20032;-41
2023/08/08 12:10:56;;;;;;;1.58;1.27;;;21.40;99.90;;;;;;5002818;28;20045;-39
2023/08/08 12:13:23;;;;;;;1.80;1.50;;;21.80;99.90;;;;;;5000601;28;20355;-39
2023/08/08 12:15:49;;;;;;;2.97;1.20;;;22.10;99.90;;;;;;4986031;28;20026;-39
2023/08/08 12:18:18;;;;;;;1.15;1.05;;;22.00;99.90;;;;;;4998684;28;20042;-37
2023/08/08 12:20:44;;;;;;;2.42;1.40;;;22.00;99.90;;;;;;4997929;28;20038;-41
2023/08/08 12:23:10;;;;;;;1.73;1.40;;;22.10;99.90;;;;;;4999975;28;20110;-42
2023/08/08 12:25:36;;;;;;;1.90;1.38;;;22.00;99.90;;;;;;4998723;28;20777;-42
2023/08/08 12:28:02;;;;;;;1.85;1.30;;;21.80;99.90;;;;;;5004052;28;20069;-41
2023/08/08 12:30:28;;;;;;;1.48;1.38;;;21.70;99.90;;;;;;4999313;28;20057;-32
2023/08/08 12:32:53;;;;;;;1.58;1.45;;;21.50;99.90;;;;;;4993073;28;20077;-34
2023/08/08 12:35:20;;;;;;;2.85;1.20;;;21.50;99.90;;;;;;5001033;28;20057;-32
2023/08/08 12:37:46;;;;;;;2.42;1.33;;;21.60;99.90;;;;;;4999298;28;20042;-33
2023/08/08 12:40:12;;;;;;;1.40;1.30;;;21.90;99.90;;;;;;4996927;28;20042;-32
2023/08/08 12:42:38;;;;;;;1.98;1.27;;;22.00;99.90;;;;;;4996976;28;20104;-32
2023/08/08 12:45:05;;;;;;;2.20;1.30;;;22.40;99.90;;;;;;5002229;28;20105;-33